sensor_id;sensor_type;location;lat;lon;timestamp;P1;durP1;ratioP1;P2;durP2;ratioP2
22924;SDS011;11628;51.072;3.712;2023-01-01T00:01:41;4.75;;;1.75;;
22924;SDS011;11628;51.072;3.712;2023-01-01T00:04:09;6.10;;;2.30;;
22924;SDS011;11628;51.072;3.712;2023-01-01T00:06:37;4.95;;;2.25;;
22924;SDS011;11628;51.072;3.712;2023-01-01T00:09:03;5.57;;;1.90;;
22924;SDS011;11628;51.072;3.712;2023-01-01T00:11:47;6.57;;;2.45;;
22924;SDS011;11628;51.072;3.712;2023-01-01T00:14:13;10.35;;;2.05;;
22924;SDS011;11628;51.072;3.712;2023-01-01T00:16:38;5.45;;;1.60;;
22924;SDS011;11628;51.072;3.712;2023-01-01T00:19:04;5.55;;;1.83;;
22924;SDS011;11628;51.072;3.712;2023-01-01T00:21:30;8.13;;;2.20;;
22924;SDS011;11628;51.072;3.712;2023-01-01T00:23:56;10.07;;;3.67;;
22924;SDS011;11628;51.072;3.712;2023-01-01T00:26:21;7.25;;;2.83;;
22924;SDS011;11628;51.072;3.712;2023-01-01T00:28:47;6.90;;;2.40;;
22924;SDS011;11628;51.072;3.712;2023-01-01T00:31:14;5.93;;;2.30;;
22924;SDS011;11628;51.072;3.712;2023-01-01T00:33:44;4.75;;;2.00;;
22924;SDS011;11628;51.072;3.712;2023-01-01T00:36:15;6.03;;;2.10;;
22924;SDS011;11628;51.072;3.712;2023-01-01T00:38:42;8.95;;;2.40;;
22924;SDS011;11628;51.072;3.712;2023-01-01T00:41:08;5.97;;;2.50;;
22924;SDS011;11628;51.072;3.712;2023-01-01T00:43:35;6.00;;;2.25;;
22924;SDS011;11628;51.072;3.712;2023-01-01T00:46:00;6.22;;;2.50;;
22924;SDS011;11628;51.072;3.712;2023-01-01T00:48:27;8.70;;;1.92;;
22924;SDS011;11628;51.072;3.712;2023-01-01T00:50:52;5.00;;;2.40;;
22924;SDS011;11628;51.072;3.712;2023-01-01T00:53:19;5.85;;;2.08;;
22924;SDS011;11628;51.072;3.712;2023-01-01T00:55:46;9.13;;;2.80;;
22924;SDS011;11628;51.072;3.712;2023-01-01T00:58:12;7.97;;;2.72;;
22924;SDS011;11628;51.072;3.712;2023-01-01T01:00:39;6.13;;;2.33;;
22924;SDS011;11628;51.072;3.712;2023-01-01T01:03:04;8.80;;;2.90;;
22924;SDS011;11628;51.072;3.712;2023-01-01T01:05:31;8.00;;;2.13;;
22924;SDS011;11628;51.072;3.712;2023-01-01T01:07:57;4.65;;;2.00;;
22924;SDS011;11628;51.072;3.712;2023-01-01T01:10:24;7.18;;;3.05;;
22924;SDS011;11628;51.072;3.712;2023-01-01T01:12:50;8.70;;;2.88;;
22924;SDS011;11628;51.072;3.712;2023-01-01T01:15:17;6.07;;;2.20;;
22924;SDS011;11628;51.072;3.712;2023-01-01T01:17:43;9.57;;;2.22;;
22924;SDS011;11628;51.072;3.712;2023-01-01T01:20:09;9.25;;;2.30;;
22924;SDS011;11628;51.072;3.712;2023-01-01T01:22:35;7.10;;;1.90;;
22924;SDS011;11628;51.072;3.712;2023-01-01T01:25:02;5.30;;;1.75;;
22924;SDS011;11628;51.072;3.712;2023-01-01T01:27:28;5.05;;;1.67;;
22924;SDS011;11628;51.072;3.712;2023-01-01T01:29:54;5.63;;;1.90;;
22924;SDS011;11628;51.072;3.712;2023-01-01T01:32:20;5.22;;;2.25;;
22924;SDS011;11628;51.072;3.712;2023-01-01T01:34:46;5.95;;;1.90;;
22924;SDS011;11628;51.072;3.712;2023-01-01T01:37:12;11.50;;;3.20;;
22924;SDS011;11628;51.072;3.712;2023-01-01T01:39:38;7.20;;;2.50;;
22924;SDS011;11628;51.072;3.712;2023-01-01T01:42:04;8.88;;;2.05;;
22924;SDS011;11628;51.072;3.712;2023-01-01T01:47:19;7.05;;;1.90;;
22924;SDS011;11628;51.072;3.712;2023-01-01T01:55:30;6.28;;;1.67;;
22924;SDS011;11628;51.072;3.712;2023-01-01T01:57:59;5.82;;;1.95;;
22924;SDS011;11628;51.072;3.712;2023-01-01T02:00:25;11.25;;;2.30;;
22924;SDS011;11628;51.072;3.712;2023-01-01T02:02:55;9.70;;;2.58;;
22924;SDS011;11628;51.072;3.712;2023-01-01T02:05:33;6.25;;;1.60;;
22924;SDS011;11628;51.072;3.712;2023-01-01T02:08:00;6.60;;;1.80;;
22924;SDS011;11628;51.072;3.712;2023-01-01T02:10:28;5.25;;;1.45;;
22924;SDS011;11628;51.072;3.712;2023-01-01T02:12:54;10.13;;;2.40;;
22924;SDS011;11628;51.072;3.712;2023-01-01T02:15:21;5.82;;;1.75;;
22924;SDS011;11628;51.072;3.712;2023-01-01T02:18:02;8.07;;;2.08;;
22924;SDS011;11628;51.072;3.712;2023-01-01T02:20:39;7.03;;;1.80;;
22924;SDS011;11628;51.072;3.712;2023-01-01T02:28:43;7.18;;;1.75;;
22924;SDS011;11628;51.072;3.712;2023-01-01T02:31:26;7.93;;;2.35;;
22924;SDS011;11628;51.072;3.712;2023-01-01T02:33:54;5.78;;;2.58;;
22924;SDS011;11628;51.072;3.712;2023-01-01T02:36:25;7.05;;;2.05;;
22924;SDS011;11628;51.072;3.712;2023-01-01T02:38:54;5.80;;;1.92;;
22924;SDS011;11628;51.072;3.712;2023-01-01T02:41:24;7.38;;;1.50;;
22924;SDS011;11628;51.072;3.712;2023-01-01T02:43:52;5.15;;;2.25;;
22924;SDS011;11628;51.072;3.712;2023-01-01T02:46:19;8.05;;;1.60;;
22924;SDS011;11628;51.072;3.712;2023-01-01T02:48:49;6.13;;;1.88;;
22924;SDS011;11628;51.072;3.712;2023-01-01T03:01:58;6.20;;;1.90;;
22924;SDS011;11628;51.072;3.712;2023-01-01T03:16:54;5.93;;;1.40;;
22924;SDS011;11628;51.072;3.712;2023-01-01T03:19:36;7.43;;;2.17;;
22924;SDS011;11628;51.072;3.712;2023-01-01T03:22:07;5.30;;;1.73;;
22924;SDS011;11628;51.072;3.712;2023-01-01T03:24:37;7.22;;;2.03;;
22924;SDS011;11628;51.072;3.712;2023-01-01T03:27:16;5.68;;;2.15;;
22924;SDS011;11628;51.072;3.712;2023-01-01T03:29:56;6.72;;;1.88;;
22924;SDS011;11628;51.072;3.712;2023-01-01T03:32:27;8.23;;;2.13;;
22924;SDS011;11628;51.072;3.712;2023-01-01T03:35:16;6.57;;;1.88;;
22924;SDS011;11628;51.072;3.712;2023-01-01T03:37:44;7.72;;;1.80;;
22924;SDS011;11628;51.072;3.712;2023-01-01T03:40:14;8.90;;;1.83;;
22924;SDS011;11628;51.072;3.712;2023-01-01T03:42:44;2.95;;;1.40;;
22924;SDS011;11628;51.072;3.712;2023-01-01T03:45:25;5.70;;;1.58;;
22924;SDS011;11628;51.072;3.712;2023-01-01T03:47:55;7.90;;;1.95;;
22924;SDS011;11628;51.072;3.712;2023-01-01T03:50:21;7.78;;;1.60;;
22924;SDS011;11628;51.072;3.712;2023-01-01T03:53:09;6.35;;;1.85;;
22924;SDS011;11628;51.072;3.712;2023-01-01T03:55:48;7.15;;;2.10;;
22924;SDS011;11628;51.072;3.712;2023-01-01T03:58:34;11.07;;;2.17;;
22924;SDS011;11628;51.072;3.712;2023-01-01T04:01:18;6.78;;;2.10;;
22924;SDS011;11628;51.072;3.712;2023-01-01T04:03:58;7.88;;;2.05;;
22924;SDS011;11628;51.072;3.712;2023-01-01T04:06:25;11.45;;;2.10;;
22924;SDS011;11628;51.072;3.712;2023-01-01T04:08:52;5.45;;;1.67;;
22924;SDS011;11628;51.072;3.712;2023-01-01T04:11:22;8.90;;;2.03;;
22924;SDS011;11628;51.072;3.712;2023-01-01T04:14:10;9.75;;;2.10;;
22924;SDS011;11628;51.072;3.712;2023-01-01T04:16:36;9.88;;;2.78;;
22924;SDS011;11628;51.072;3.712;2023-01-01T04:19:01;7.53;;;2.05;;
22924;SDS011;11628;51.072;3.712;2023-01-01T04:21:32;5.45;;;1.65;;
22924;SDS011;11628;51.072;3.712;2023-01-01T04:23:59;9.73;;;2.60;;
22924;SDS011;11628;51.072;3.712;2023-01-01T04:26:24;8.60;;;2.28;;
22924;SDS011;11628;51.072;3.712;2023-01-01T04:28:50;11.50;;;2.28;;
22924;SDS011;11628;51.072;3.712;2023-01-01T04:31:16;7.20;;;1.60;;
22924;SDS011;11628;51.072;3.712;2023-01-01T04:33:42;10.98;;;2.33;;
22924;SDS011;11628;51.072;3.712;2023-01-01T04:36:08;6.30;;;2.15;;
22924;SDS011;11628;51.072;3.712;2023-01-01T04:38:35;4.07;;;1.17;;
22924;SDS011;11628;51.072;3.712;2023-01-01T04:41:02;6.18;;;0.98;;
22924;SDS011;11628;51.072;3.712;2023-01-01T04:43:29;2.42;;;0.57;;
22924;SDS011;11628;51.072;3.712;2023-01-01T04:45:59;3.78;;;0.63;;
22924;SDS011;11628;51.072;3.712;2023-01-01T04:48:27;3.42;;;0.93;;
22924;SDS011;11628;51.072;3.712;2023-01-01T04:51:03;4.28;;;0.65;;
22924;SDS011;11628;51.072;3.712;2023-01-01T04:53:30;5.95;;;0.60;;
22924;SDS011;11628;51.072;3.712;2023-01-01T04:58:30;4.93;;;0.70;;
22924;SDS011;11628;51.072;3.712;2023-01-01T05:00:56;3.60;;;1.17;;
22924;SDS011;11628;51.072;3.712;2023-01-01T05:03:22;3.65;;;0.80;;
22924;SDS011;11628;51.072;3.712;2023-01-01T05:05:58;3.80;;;0.50;;
22924;SDS011;11628;51.072;3.712;2023-01-01T05:08:32;3.50;;;0.93;;
22924;SDS011;11628;51.072;3.712;2023-01-01T05:11:20;5.22;;;0.70;;
22924;SDS011;11628;51.072;3.712;2023-01-01T05:13:46;3.67;;;0.70;;
22924;SDS011;11628;51.072;3.712;2023-01-01T05:16:14;5.10;;;0.70;;
22924;SDS011;11628;51.072;3.712;2023-01-01T05:18:43;5.10;;;1.33;;
22924;SDS011;11628;51.072;3.712;2023-01-01T05:21:16;4.78;;;0.80;;
22924;SDS011;11628;51.072;3.712;2023-01-01T05:24:02;4.05;;;0.95;;
22924;SDS011;11628;51.072;3.712;2023-01-01T05:26:31;5.22;;;1.10;;
22924;SDS011;11628;51.072;3.712;2023-01-01T05:29:04;5.95;;;0.93;;
22924;SDS011;11628;51.072;3.712;2023-01-01T05:31:31;8.18;;;1.35;;
22924;SDS011;11628;51.072;3.712;2023-01-01T05:33:58;7.88;;;1.33;;
22924;SDS011;11628;51.072;3.712;2023-01-01T05:36:26;3.83;;;0.95;;
22924;SDS011;11628;51.072;3.712;2023-01-01T05:38:53;4.68;;;0.95;;
22924;SDS011;11628;51.072;3.712;2023-01-01T05:41:19;4.50;;;0.95;;
22924;SDS011;11628;51.072;3.712;2023-01-01T05:43:46;4.13;;;1.45;;
22924;SDS011;11628;51.072;3.712;2023-01-01T05:46:13;6.30;;;1.42;;
22924;SDS011;11628;51.072;3.712;2023-01-01T05:48:43;4.97;;;1.65;;
22924;SDS011;11628;51.072;3.712;2023-01-01T05:51:13;7.30;;;1.20;;
22924;SDS011;11628;51.072;3.712;2023-01-01T05:53:41;8.27;;;1.83;;
22924;SDS011;11628;51.072;3.712;2023-01-01T05:56:08;7.28;;;1.00;;
22924;SDS011;11628;51.072;3.712;2023-01-01T05:58:34;7.07;;;1.08;;
22924;SDS011;11628;51.072;3.712;2023-01-01T06:01:04;7.13;;;1.58;;
22924;SDS011;11628;51.072;3.712;2023-01-01T06:03:34;7.22;;;1.23;;
22924;SDS011;11628;51.072;3.712;2023-01-01T06:06:04;6.22;;;1.27;;
22924;SDS011;11628;51.072;3.712;2023-01-01T06:08:31;8.35;;;1.60;;
22924;SDS011;11628;51.072;3.712;2023-01-01T06:10:58;9.48;;;1.45;;
22924;SDS011;11628;51.072;3.712;2023-01-01T06:13:28;4.28;;;0.90;;
22924;SDS011;11628;51.072;3.712;2023-01-01T06:15:55;5.30;;;0.98;;
22924;SDS011;11628;51.072;3.712;2023-01-01T06:18:22;8.10;;;1.35;;
22924;SDS011;11628;51.072;3.712;2023-01-01T06:20:48;6.95;;;1.10;;
22924;SDS011;11628;51.072;3.712;2023-01-01T06:23:14;4.80;;;0.90;;
22924;SDS011;11628;51.072;3.712;2023-01-01T06:25:40;5.63;;;0.98;;
22924;SDS011;11628;51.072;3.712;2023-01-01T06:28:07;8.50;;;1.00;;
22924;SDS011;11628;51.072;3.712;2023-01-01T06:30:32;7.22;;;1.00;;
22924;SDS011;11628;51.072;3.712;2023-01-01T06:32:59;7.80;;;1.02;;
22924;SDS011;11628;51.072;3.712;2023-01-01T06:35:26;9.88;;;1.00;;
22924;SDS011;11628;51.072;3.712;2023-01-01T06:37:53;12.85;;;1.98;;
22924;SDS011;11628;51.072;3.712;2023-01-01T06:40:18;10.45;;;1.50;;
22924;SDS011;11628;51.072;3.712;2023-01-01T06:42:44;7.20;;;1.00;;
22924;SDS011;11628;51.072;3.712;2023-01-01T06:45:10;11.88;;;1.73;;
22924;SDS011;11628;51.072;3.712;2023-01-01T06:47:37;13.18;;;1.83;;
22924;SDS011;11628;51.072;3.712;2023-01-01T06:50:03;9.68;;;1.10;;
22924;SDS011;11628;51.072;3.712;2023-01-01T06:52:29;8.57;;;1.60;;
22924;SDS011;11628;51.072;3.712;2023-01-01T06:54:55;8.98;;;1.38;;
22924;SDS011;11628;51.072;3.712;2023-01-01T06:57:22;11.80;;;1.63;;
22924;SDS011;11628;51.072;3.712;2023-01-01T06:59:48;16.15;;;1.98;;
22924;SDS011;11628;51.072;3.712;2023-01-01T07:02:14;11.57;;;2.00;;
22924;SDS011;11628;51.072;3.712;2023-01-01T07:04:39;7.82;;;1.65;;
22924;SDS011;11628;51.072;3.712;2023-01-01T07:07:05;14.27;;;2.17;;
22924;SDS011;11628;51.072;3.712;2023-01-01T07:09:31;16.48;;;2.00;;
22924;SDS011;11628;51.072;3.712;2023-01-01T07:11:57;11.60;;;1.70;;
22924;SDS011;11628;51.072;3.712;2023-01-01T07:14:22;9.18;;;2.55;;
22924;SDS011;11628;51.072;3.712;2023-01-01T07:16:48;13.73;;;4.13;;
22924;SDS011;11628;51.072;3.712;2023-01-01T07:19:14;12.20;;;1.92;;
22924;SDS011;11628;51.072;3.712;2023-01-01T07:21:41;6.30;;;1.20;;
22924;SDS011;11628;51.072;3.712;2023-01-01T07:24:10;10.90;;;1.83;;
22924;SDS011;11628;51.072;3.712;2023-01-01T07:26:37;9.00;;;2.38;;
22924;SDS011;11628;51.072;3.712;2023-01-01T07:29:03;14.73;;;2.45;;
22924;SDS011;11628;51.072;3.712;2023-01-01T07:31:30;12.68;;;2.95;;
22924;SDS011;11628;51.072;3.712;2023-01-01T07:33:55;15.00;;;3.03;;
22924;SDS011;11628;51.072;3.712;2023-01-01T07:36:21;10.55;;;2.00;;
22924;SDS011;11628;51.072;3.712;2023-01-01T07:38:47;11.77;;;2.60;;
22924;SDS011;11628;51.072;3.712;2023-01-01T07:41:12;9.85;;;1.92;;
22924;SDS011;11628;51.072;3.712;2023-01-01T07:43:38;13.95;;;3.65;;
22924;SDS011;11628;51.072;3.712;2023-01-01T07:46:04;19.50;;;4.65;;
22924;SDS011;11628;51.072;3.712;2023-01-01T07:48:30;10.10;;;3.03;;
22924;SDS011;11628;51.072;3.712;2023-01-01T07:50:56;15.73;;;4.32;;
22924;SDS011;11628;51.072;3.712;2023-01-01T07:53:22;12.23;;;5.05;;
22924;SDS011;11628;51.072;3.712;2023-01-01T07:55:47;10.38;;;3.33;;
22924;SDS011;11628;51.072;3.712;2023-01-01T07:58:13;11.93;;;3.55;;
22924;SDS011;11628;51.072;3.712;2023-01-01T08:00:39;12.13;;;2.85;;
22924;SDS011;11628;51.072;3.712;2023-01-01T08:03:05;12.88;;;2.50;;
22924;SDS011;11628;51.072;3.712;2023-01-01T08:05:31;14.27;;;2.53;;
22924;SDS011;11628;51.072;3.712;2023-01-01T08:07:59;11.98;;;3.10;;
22924;SDS011;11628;51.072;3.712;2023-01-01T08:10:25;14.20;;;2.55;;
22924;SDS011;11628;51.072;3.712;2023-01-01T08:12:51;9.35;;;2.70;;
22924;SDS011;11628;51.072;3.712;2023-01-01T08:15:22;14.23;;;2.67;;
22924;SDS011;11628;51.072;3.712;2023-01-01T08:17:48;14.38;;;3.33;;
22924;SDS011;11628;51.072;3.712;2023-01-01T08:20:13;8.40;;;3.00;;
22924;SDS011;11628;51.072;3.712;2023-01-01T08:22:39;11.00;;;4.28;;
22924;SDS011;11628;51.072;3.712;2023-01-01T08:25:05;14.82;;;3.50;;
22924;SDS011;11628;51.072;3.712;2023-01-01T08:27:31;18.23;;;4.25;;
22924;SDS011;11628;51.072;3.712;2023-01-01T08:29:57;10.38;;;2.92;;
22924;SDS011;11628;51.072;3.712;2023-01-01T08:32:23;11.77;;;3.35;;
22924;SDS011;11628;51.072;3.712;2023-01-01T08:34:48;10.55;;;2.72;;
22924;SDS011;11628;51.072;3.712;2023-01-01T08:37:14;8.75;;;3.55;;
22924;SDS011;11628;51.072;3.712;2023-01-01T08:39:40;14.68;;;3.45;;
22924;SDS011;11628;51.072;3.712;2023-01-01T08:42:06;10.95;;;3.05;;
22924;SDS011;11628;51.072;3.712;2023-01-01T08:44:32;12.85;;;3.35;;
22924;SDS011;11628;51.072;3.712;2023-01-01T08:46:57;16.00;;;3.25;;
22924;SDS011;11628;51.072;3.712;2023-01-01T08:49:23;14.85;;;4.43;;
22924;SDS011;11628;51.072;3.712;2023-01-01T08:51:49;16.48;;;5.18;;
22924;SDS011;11628;51.072;3.712;2023-01-01T08:54:15;13.93;;;3.83;;
22924;SDS011;11628;51.072;3.712;2023-01-01T08:56:40;14.23;;;4.25;;
22924;SDS011;11628;51.072;3.712;2023-01-01T08:59:06;15.48;;;3.17;;
22924;SDS011;11628;51.072;3.712;2023-01-01T09:01:32;10.07;;;2.90;;
22924;SDS011;11628;51.072;3.712;2023-01-01T09:03:57;14.15;;;2.88;;
22924;SDS011;11628;51.072;3.712;2023-01-01T09:06:23;11.73;;;2.72;;
22924;SDS011;11628;51.072;3.712;2023-01-01T09:08:49;13.73;;;4.40;;
22924;SDS011;11628;51.072;3.712;2023-01-01T09:11:25;12.10;;;2.67;;
22924;SDS011;11628;51.072;3.712;2023-01-01T09:13:52;10.63;;;2.60;;
22924;SDS011;11628;51.072;3.712;2023-01-01T09:16:18;12.57;;;2.85;;
22924;SDS011;11628;51.072;3.712;2023-01-01T09:18:45;14.52;;;3.47;;
22924;SDS011;11628;51.072;3.712;2023-01-01T09:21:10;8.48;;;2.40;;
22924;SDS011;11628;51.072;3.712;2023-01-01T09:23:36;14.18;;;3.03;;
22924;SDS011;11628;51.072;3.712;2023-01-01T09:26:03;10.57;;;3.10;;
22924;SDS011;11628;51.072;3.712;2023-01-01T09:28:29;12.95;;;2.65;;
22924;SDS011;11628;51.072;3.712;2023-01-01T09:30:56;14.05;;;3.03;;
22924;SDS011;11628;51.072;3.712;2023-01-01T09:33:21;12.40;;;3.50;;
22924;SDS011;11628;51.072;3.712;2023-01-01T09:35:47;11.25;;;3.95;;
22924;SDS011;11628;51.072;3.712;2023-01-01T09:38:13;11.98;;;3.17;;
22924;SDS011;11628;51.072;3.712;2023-01-01T09:43:37;10.50;;;3.03;;
22924;SDS011;11628;51.072;3.712;2023-01-01T09:46:09;12.55;;;2.80;;
22924;SDS011;11628;51.072;3.712;2023-01-01T09:48:39;10.63;;;2.00;;
22924;SDS011;11628;51.072;3.712;2023-01-01T09:51:12;12.32;;;2.63;;
22924;SDS011;11628;51.072;3.712;2023-01-01T09:53:42;11.07;;;2.63;;
22924;SDS011;11628;51.072;3.712;2023-01-01T09:56:20;13.48;;;2.83;;
22924;SDS011;11628;51.072;3.712;2023-01-01T09:58:49;14.90;;;2.85;;
22924;SDS011;11628;51.072;3.712;2023-01-01T10:09:58;8.50;;;2.00;;
22924;SDS011;11628;51.072;3.712;2023-01-01T10:12:32;11.35;;;2.78;;
22924;SDS011;11628;51.072;3.712;2023-01-01T10:15:10;12.00;;;3.08;;
22924;SDS011;11628;51.072;3.712;2023-01-01T10:17:45;14.85;;;3.25;;
22924;SDS011;11628;51.072;3.712;2023-01-01T10:20:35;16.05;;;3.72;;
22924;SDS011;11628;51.072;3.712;2023-01-01T10:23:11;11.98;;;2.58;;
22924;SDS011;11628;51.072;3.712;2023-01-01T10:25:50;10.02;;;2.83;;
22924;SDS011;11628;51.072;3.712;2023-01-01T10:28:20;11.15;;;2.50;;
22924;SDS011;11628;51.072;3.712;2023-01-01T10:30:52;9.57;;;2.67;;
22924;SDS011;11628;51.072;3.712;2023-01-01T10:33:38;14.48;;;2.83;;
22924;SDS011;11628;51.072;3.712;2023-01-01T10:36:04;10.27;;;2.85;;
22924;SDS011;11628;51.072;3.712;2023-01-01T10:38:31;12.45;;;3.00;;
22924;SDS011;11628;51.072;3.712;2023-01-01T10:41:02;12.75;;;2.60;;
22924;SDS011;11628;51.072;3.712;2023-01-01T10:43:32;8.25;;;2.17;;
22924;SDS011;11628;51.072;3.712;2023-01-01T10:45:59;12.18;;;1.95;;
22924;SDS011;11628;51.072;3.712;2023-01-01T10:48:27;12.45;;;2.75;;
22924;SDS011;11628;51.072;3.712;2023-01-01T10:50:57;14.07;;;2.85;;
22924;SDS011;11628;51.072;3.712;2023-01-01T10:56:20;12.55;;;2.05;;
22924;SDS011;11628;51.072;3.712;2023-01-01T10:58:51;9.77;;;2.28;;
22924;SDS011;11628;51.072;3.712;2023-01-01T11:01:26;9.95;;;1.98;;
22924;SDS011;11628;51.072;3.712;2023-01-01T11:03:57;8.82;;;2.55;;
22924;SDS011;11628;51.072;3.712;2023-01-01T11:06:34;11.35;;;2.42;;
22924;SDS011;11628;51.072;3.712;2023-01-01T11:09:03;8.80;;;2.13;;
22924;SDS011;11628;51.072;3.712;2023-01-01T11:11:54;17.63;;;2.80;;
22924;SDS011;11628;51.072;3.712;2023-01-01T11:14:36;12.25;;;3.00;;
22924;SDS011;11628;51.072;3.712;2023-01-01T11:17:05;13.43;;;3.00;;
22924;SDS011;11628;51.072;3.712;2023-01-01T11:19:33;12.15;;;2.85;;
22924;SDS011;11628;51.072;3.712;2023-01-01T11:22:01;10.07;;;2.55;;
22924;SDS011;11628;51.072;3.712;2023-01-01T11:24:33;6.53;;;1.92;;
22924;SDS011;11628;51.072;3.712;2023-01-01T11:29:48;11.00;;;2.70;;
22924;SDS011;11628;51.072;3.712;2023-01-01T11:32:21;11.00;;;3.20;;
22924;SDS011;11628;51.072;3.712;2023-01-01T11:34:59;12.23;;;2.60;;
22924;SDS011;11628;51.072;3.712;2023-01-01T11:37:28;12.88;;;2.92;;
22924;SDS011;11628;51.072;3.712;2023-01-01T11:39:58;7.25;;;2.60;;
22924;SDS011;11628;51.072;3.712;2023-01-01T11:42:29;11.48;;;2.60;;
22924;SDS011;11628;51.072;3.712;2023-01-01T11:45:02;10.85;;;2.00;;
22924;SDS011;11628;51.072;3.712;2023-01-01T11:47:32;11.20;;;2.88;;
22924;SDS011;11628;51.072;3.712;2023-01-01T11:52:44;11.45;;;2.50;;
22924;SDS011;11628;51.072;3.712;2023-01-01T11:58:13;9.20;;;2.50;;
22924;SDS011;11628;51.072;3.712;2023-01-01T12:00:49;8.88;;;2.00;;
22924;SDS011;11628;51.072;3.712;2023-01-01T12:03:21;9.73;;;2.38;;
22924;SDS011;11628;51.072;3.712;2023-01-01T12:06:01;10.30;;;2.63;;
22924;SDS011;11628;51.072;3.712;2023-01-01T12:11:35;13.02;;;2.65;;
22924;SDS011;11628;51.072;3.712;2023-01-01T12:22:11;12.88;;;2.10;;
22924;SDS011;11628;51.072;3.712;2023-01-01T12:24:42;15.32;;;2.55;;
22924;SDS011;11628;51.072;3.712;2023-01-01T12:27:15;15.13;;;2.88;;
22924;SDS011;11628;51.072;3.712;2023-01-01T12:30:24;9.18;;;2.35;;
22924;SDS011;11628;51.072;3.712;2023-01-01T12:45:16;14.23;;;3.10;;
22924;SDS011;11628;51.072;3.712;2023-01-01T12:50:51;13.77;;;3.35;;
22924;SDS011;11628;51.072;3.712;2023-01-01T12:53:40;11.65;;;2.90;;
22924;SDS011;11628;51.072;3.712;2023-01-01T12:56:26;13.93;;;3.22;;
22924;SDS011;11628;51.072;3.712;2023-01-01T12:59:22;7.75;;;2.53;;
22924;SDS011;11628;51.072;3.712;2023-01-01T13:01:54;9.23;;;2.75;;
22924;SDS011;11628;51.072;3.712;2023-01-01T13:04:22;13.65;;;3.25;;
22924;SDS011;11628;51.072;3.712;2023-01-01T13:06:52;10.70;;;2.47;;
22924;SDS011;11628;51.072;3.712;2023-01-01T13:09:32;14.13;;;3.55;;
22924;SDS011;11628;51.072;3.712;2023-01-01T13:12:03;10.10;;;3.00;;
22924;SDS011;11628;51.072;3.712;2023-01-01T13:14:29;12.63;;;3.33;;
22924;SDS011;11628;51.072;3.712;2023-01-01T13:17:01;14.63;;;2.72;;
22924;SDS011;11628;51.072;3.712;2023-01-01T13:19:33;8.65;;;2.45;;
22924;SDS011;11628;51.072;3.712;2023-01-01T13:41:38;11.80;;;2.80;;
22924;SDS011;11628;51.072;3.712;2023-01-01T13:44:22;14.05;;;3.60;;
22924;SDS011;11628;51.072;3.712;2023-01-01T13:46:53;12.82;;;2.45;;
22924;SDS011;11628;51.072;3.712;2023-01-01T13:49:42;14.40;;;3.13;;
22924;SDS011;11628;51.072;3.712;2023-01-01T13:55:18;15.88;;;2.97;;
22924;SDS011;11628;51.072;3.712;2023-01-01T14:03:27;14.05;;;3.10;;
22924;SDS011;11628;51.072;3.712;2023-01-01T14:06:01;12.25;;;2.40;;
22924;SDS011;11628;51.072;3.712;2023-01-01T14:08:32;12.98;;;3.38;;
22924;SDS011;11628;51.072;3.712;2023-01-01T14:10:59;12.80;;;2.47;;
22924;SDS011;11628;51.072;3.712;2023-01-01T14:13:30;13.18;;;2.38;;
22924;SDS011;11628;51.072;3.712;2023-01-01T14:16:05;11.43;;;2.55;;
22924;SDS011;11628;51.072;3.712;2023-01-01T14:18:38;15.77;;;3.63;;
22924;SDS011;11628;51.072;3.712;2023-01-01T14:21:08;12.35;;;3.10;;
22924;SDS011;11628;51.072;3.712;2023-01-01T14:23:38;10.60;;;2.45;;
22924;SDS011;11628;51.072;3.712;2023-01-01T14:26:08;14.05;;;3.20;;
22924;SDS011;11628;51.072;3.712;2023-01-01T14:28:36;11.57;;;3.45;;
22924;SDS011;11628;51.072;3.712;2023-01-01T14:33:43;14.80;;;3.42;;
22924;SDS011;11628;51.072;3.712;2023-01-01T14:36:22;16.73;;;3.50;;
22924;SDS011;11628;51.072;3.712;2023-01-01T14:38:51;16.60;;;3.30;;
22924;SDS011;11628;51.072;3.712;2023-01-01T14:44:13;10.77;;;2.50;;
22924;SDS011;11628;51.072;3.712;2023-01-01T14:46:45;16.52;;;3.85;;
22924;SDS011;11628;51.072;3.712;2023-01-01T14:49:17;11.55;;;3.38;;
22924;SDS011;11628;51.072;3.712;2023-01-01T14:51:50;11.73;;;3.00;;
22924;SDS011;11628;51.072;3.712;2023-01-01T14:54:33;18.25;;;3.28;;
22924;SDS011;11628;51.072;3.712;2023-01-01T14:57:08;13.02;;;3.88;;
22924;SDS011;11628;51.072;3.712;2023-01-01T14:59:35;13.25;;;3.10;;
22924;SDS011;11628;51.072;3.712;2023-01-01T15:02:16;12.52;;;3.10;;
22924;SDS011;11628;51.072;3.712;2023-01-01T15:04:46;9.90;;;2.50;;
22924;SDS011;11628;51.072;3.712;2023-01-01T15:07:19;9.18;;;2.85;;
22924;SDS011;11628;51.072;3.712;2023-01-01T15:09:47;11.50;;;2.72;;
22924;SDS011;11628;51.072;3.712;2023-01-01T15:12:14;13.70;;;3.72;;
22924;SDS011;11628;51.072;3.712;2023-01-01T15:14:42;14.10;;;2.78;;
22924;SDS011;11628;51.072;3.712;2023-01-01T15:17:16;16.60;;;3.85;;
22924;SDS011;11628;51.072;3.712;2023-01-01T15:20:00;11.07;;;3.00;;
22924;SDS011;11628;51.072;3.712;2023-01-01T15:22:30;11.50;;;3.05;;
22924;SDS011;11628;51.072;3.712;2023-01-01T15:24:58;14.23;;;4.05;;
22924;SDS011;11628;51.072;3.712;2023-01-01T15:27:32;9.18;;;3.40;;
22924;SDS011;11628;51.072;3.712;2023-01-01T15:30:00;11.30;;;3.83;;
22924;SDS011;11628;51.072;3.712;2023-01-01T15:32:29;15.43;;;3.13;;
22924;SDS011;11628;51.072;3.712;2023-01-01T15:35:17;12.77;;;3.70;;
22924;SDS011;11628;51.072;3.712;2023-01-01T15:42:40;14.35;;;3.55;;
22924;SDS011;11628;51.072;3.712;2023-01-01T15:45:25;12.10;;;3.97;;
22924;SDS011;11628;51.072;3.712;2023-01-01T15:47:55;9.95;;;3.30;;
22924;SDS011;11628;51.072;3.712;2023-01-01T15:50:26;15.18;;;3.47;;
22924;SDS011;11628;51.072;3.712;2023-01-01T15:55:47;10.90;;;3.30;;
22924;SDS011;11628;51.072;3.712;2023-01-01T15:58:22;11.27;;;3.25;;
22924;SDS011;11628;51.072;3.712;2023-01-01T16:00:58;10.35;;;3.38;;
22924;SDS011;11628;51.072;3.712;2023-01-01T16:03:37;14.73;;;4.55;;
22924;SDS011;11628;51.072;3.712;2023-01-01T16:06:04;15.13;;;4.25;;
22924;SDS011;11628;51.072;3.712;2023-01-01T16:08:30;10.60;;;4.18;;
22924;SDS011;11628;51.072;3.712;2023-01-01T16:10:56;12.73;;;3.67;;
22924;SDS011;11628;51.072;3.712;2023-01-01T16:13:22;14.80;;;3.90;;
22924;SDS011;11628;51.072;3.712;2023-01-01T16:15:58;13.38;;;4.53;;
22924;SDS011;11628;51.072;3.712;2023-01-01T16:18:30;14.55;;;3.85;;
22924;SDS011;11628;51.072;3.712;2023-01-01T16:20:58;10.75;;;3.78;;
22924;SDS011;11628;51.072;3.712;2023-01-01T16:23:25;16.95;;;4.57;;
22924;SDS011;11628;51.072;3.712;2023-01-01T16:25:51;15.82;;;4.45;;
22924;SDS011;11628;51.072;3.712;2023-01-01T16:28:17;16.35;;;4.25;;
22924;SDS011;11628;51.072;3.712;2023-01-01T16:30:43;13.40;;;4.10;;
22924;SDS011;11628;51.072;3.712;2023-01-01T16:33:15;12.27;;;3.97;;
22924;SDS011;11628;51.072;3.712;2023-01-01T16:35:43;10.82;;;4.15;;
22924;SDS011;11628;51.072;3.712;2023-01-01T16:38:09;13.20;;;4.38;;
22924;SDS011;11628;51.072;3.712;2023-01-01T16:40:35;12.25;;;4.68;;
22924;SDS011;11628;51.072;3.712;2023-01-01T16:43:01;14.25;;;5.30;;
22924;SDS011;11628;51.072;3.712;2023-01-01T16:45:29;17.13;;;5.05;;
22924;SDS011;11628;51.072;3.712;2023-01-01T16:47:55;12.90;;;4.68;;
22924;SDS011;11628;51.072;3.712;2023-01-01T16:50:21;17.92;;;4.93;;
22924;SDS011;11628;51.072;3.712;2023-01-01T16:52:47;15.50;;;5.10;;
22924;SDS011;11628;51.072;3.712;2023-01-01T16:55:12;17.73;;;5.07;;
22924;SDS011;11628;51.072;3.712;2023-01-01T16:57:38;15.82;;;5.18;;
22924;SDS011;11628;51.072;3.712;2023-01-01T17:00:05;18.98;;;5.75;;
22924;SDS011;11628;51.072;3.712;2023-01-01T17:02:33;11.48;;;4.25;;
22924;SDS011;11628;51.072;3.712;2023-01-01T17:04:58;17.30;;;4.95;;
22924;SDS011;11628;51.072;3.712;2023-01-01T17:07:24;14.20;;;4.82;;